createdAt,value
2018-09-05T00:02:09.124Z,98.50
2018-09-05T00:04:37.309Z,98.50
2018-09-05T00:07:05.613Z,98.50
2018-09-05T00:09:33.845Z,98.50
2018-09-05T00:12:02.034Z,98.50
2018-09-05T00:14:30.249Z,98.50
2018-09-05T00:16:58.431Z,98.50
2018-09-05T00:19:26.625Z,98.50
2018-09-05T00:21:54.893Z,98.50
2018-09-05T00:24:23.151Z,98.50
2018-09-05T00:26:51.365Z,98.50
2018-09-05T00:29:19.569Z,98.50
2018-09-05T00:31:47.776Z,98.50
2018-09-05T00:34:15.972Z,98.50
2018-09-05T00:36:44.278Z,98.50
2018-09-05T00:39:12.491Z,98.50
2018-09-05T00:41:40.686Z,98.50
2018-09-05T00:44:08.887Z,98.50
2018-09-05T00:46:37.060Z,98.50
2018-09-05T00:49:05.305Z,98.50
2018-09-05T00:51:33.518Z,98.50
2018-09-05T00:54:01.684Z,98.50
2018-09-05T00:56:29.901Z,98.50
2018-09-05T00:58:58.088Z,98.50
2018-09-05T01:01:27.050Z,98.50
2018-09-05T01:03:55.261Z,98.50
2018-09-05T01:06:23.492Z,98.50
2018-09-05T01:08:51.729Z,98.50
2018-09-05T01:11:19.898Z,98.50
2018-09-05T01:13:48.186Z,98.50
2018-09-05T01:16:16.561Z,98.50
2018-09-05T01:18:44.801Z,98.50
2018-09-05T01:21:12.998Z,98.50
2018-09-05T01:23:41.185Z,98.50
2018-09-05T01:26:09.384Z,98.50
2018-09-05T01:28:37.589Z,98.50
2018-09-05T01:31:05.797Z,98.50
2018-09-05T01:33:34.872Z,98.50
2018-09-05T01:36:10.013Z,98.50
2018-09-05T01:38:38.228Z,98.50
2018-09-05T01:41:06.442Z,98.50
2018-09-05T01:43:34.608Z,98.50
2018-09-05T01:46:02.833Z,98.50
2018-09-05T01:48:31.082Z,98.50
2018-09-05T01:50:59.337Z,98.50
2018-09-05T01:53:27.537Z,98.50
2018-09-05T01:55:55.705Z,98.50
2018-09-05T01:58:23.905Z,98.50
2018-09-05T02:00:52.072Z,98.50
2018-09-05T02:03:20.293Z,98.50
2018-09-05T02:05:48.485Z,98.50
2018-09-05T02:08:16.743Z,98.50
2018-09-05T02:10:44.953Z,98.50
2018-09-05T02:13:13.113Z,98.50
2018-09-05T02:15:41.329Z,98.50
2018-09-05T02:18:09.516Z,98.50
2018-09-05T02:20:37.733Z,98.50
2018-09-05T02:23:05.948Z,98.50
2018-09-05T02:25:34.177Z,98.50
2018-09-05T02:28:02.437Z,98.50
2018-09-05T02:30:30.602Z,98.50
2018-09-05T02:32:58.797Z,98.50
2018-09-05T02:35:27.015Z,98.50
2018-09-05T02:37:55.269Z,98.50
2018-09-05T02:40:23.549Z,98.50
2018-09-05T02:42:51.716Z,98.50
2018-09-05T02:45:19.951Z,98.50
2018-09-05T02:47:48.141Z,98.50
2018-09-05T02:50:16.342Z,98.50
2018-09-05T02:52:44.648Z,98.50
2018-09-05T02:55:17.294Z,98.50
2018-09-05T02:57:45.489Z,98.50
2018-09-05T03:00:13.657Z,98.50
2018-09-05T03:02:41.848Z,98.50
2018-09-05T03:05:10.012Z,98.50
2018-09-05T03:07:38.220Z,98.50
2018-09-05T03:10:06.448Z,98.50
2018-09-05T03:12:34.642Z,98.50
2018-09-05T03:15:02.866Z,98.50
2018-09-05T03:17:31.036Z,98.50
2018-09-05T03:19:59.299Z,98.50
2018-09-05T03:22:27.478Z,98.50
2018-09-05T03:24:55.674Z,98.50
2018-09-05T03:27:23.893Z,98.50
2018-09-05T03:29:52.053Z,98.50
2018-09-05T03:32:20.323Z,98.50
2018-09-05T03:34:48.529Z,98.50
2018-09-05T03:37:16.765Z,98.50
2018-09-05T03:39:44.954Z,98.50
2018-09-05T03:42:13.112Z,98.50
2018-09-05T03:44:41.317Z,98.50
2018-09-05T03:47:09.492Z,98.50
2018-09-05T03:49:37.703Z,98.50
2018-09-05T03:52:05.966Z,98.50
2018-09-05T03:54:34.129Z,98.50
2018-09-05T03:57:02.344Z,98.50
2018-09-05T03:59:30.514Z,98.50
2018-09-05T04:01:58.719Z,98.50
2018-09-05T04:04:26.925Z,98.50
2018-09-05T04:06:55.109Z,98.50
2018-09-05T04:09:23.317Z,98.50
2018-09-05T04:11:51.507Z,98.50
2018-09-05T04:14:19.712Z,98.50
2018-09-05T04:16:47.933Z,98.50
2018-09-05T04:19:16.118Z,98.50
2018-09-05T04:21:44.342Z,98.50
2018-09-05T04:24:12.538Z,98.50
2018-09-05T04:26:40.769Z,98.50
2018-09-05T04:29:09.021Z,98.50
2018-09-05T04:31:37.200Z,98.50
2018-09-05T04:34:05.445Z,98.50
2018-09-05T04:36:33.735Z,98.50
2018-09-05T04:39:02.038Z,98.50
2018-09-05T04:41:30.263Z,98.50
2018-09-05T04:43:58.458Z,98.50
2018-09-05T04:46:26.672Z,98.50
2018-09-05T04:48:54.884Z,98.50
2018-09-05T04:51:23.069Z,98.50
2018-09-05T04:53:51.318Z,98.50
2018-09-05T04:56:19.547Z,98.50
2018-09-05T04:58:47.772Z,98.50
2018-09-05T05:01:15.961Z,98.50
2018-09-05T05:03:44.168Z,98.50
2018-09-05T05:06:12.389Z,98.50
2018-09-05T05:08:40.583Z,98.50
2018-09-05T05:11:08.805Z,98.50
2018-09-05T05:13:37.014Z,98.50
2018-09-05T05:16:05.559Z,98.50
2018-09-05T05:18:33.775Z,98.50
2018-09-05T05:21:02.001Z,98.50
2018-09-05T05:23:30.222Z,98.50
2018-09-05T05:25:58.476Z,98.50
2018-09-05T05:28:26.684Z,98.50
2018-09-05T05:30:54.901Z,98.50
2018-09-05T05:33:23.076Z,98.50
2018-09-05T05:35:51.282Z,98.50
2018-09-05T05:38:19.499Z,98.50
2018-09-05T05:40:47.702Z,98.50
2018-09-05T05:43:15.930Z,98.50
2018-09-05T05:45:44.133Z,98.50
2018-09-05T05:48:12.337Z,98.50
2018-09-05T05:50:40.508Z,98.50
2018-09-05T05:53:08.705Z,98.50
2018-09-05T05:55:36.876Z,98.50
2018-09-05T05:58:05.225Z,98.50
2018-09-05T06:00:33.473Z,98.50
2018-09-05T06:03:01.680Z,98.50
2018-09-05T06:05:29.909Z,98.50
2018-09-05T06:07:58.085Z,98.50
2018-09-05T06:10:27.230Z,98.50
2018-09-05T06:12:57.133Z,97.70
2018-09-05T06:15:25.883Z,97.00
2018-09-05T06:17:54.155Z,96.90
2018-09-05T06:20:22.314Z,97.20
2018-09-05T06:22:50.534Z,96.70
2018-09-05T06:25:18.780Z,95.90
2018-09-05T06:27:47.046Z,96.10
2018-09-05T06:30:15.433Z,94.20
2018-09-05T06:32:43.621Z,94.60
2018-09-05T06:35:11.854Z,94.40
2018-09-05T06:37:40.023Z,94.40
2018-09-05T06:40:08.241Z,93.80
2018-09-05T06:42:36.684Z,94.60
2018-09-05T06:45:04.932Z,93.20
2018-09-05T06:47:33.148Z,93.50
2018-09-05T06:50:01.318Z,93.70
2018-09-05T06:52:29.529Z,93.80
2018-09-05T06:54:57.704Z,93.30
2018-09-05T06:57:25.994Z,92.90
2018-09-05T06:59:54.285Z,91.80
2018-09-05T07:02:22.502Z,91.60
2018-09-05T07:04:51.072Z,92.00
2018-09-05T07:07:19.405Z,91.30
2018-09-05T07:09:47.616Z,90.90
2018-09-05T07:12:15.794Z,90.10
2018-09-05T07:14:44.002Z,90.10
2018-09-05T07:17:12.202Z,90.50
2018-09-05T07:19:40.397Z,89.00
2018-09-05T07:22:08.655Z,88.30
2018-09-05T07:24:36.809Z,89.20
2018-09-05T07:27:05.002Z,89.30
2018-09-05T07:29:33.205Z,88.50
2018-09-05T07:32:01.429Z,89.90
2018-09-05T07:34:29.688Z,89.80
2018-09-05T07:36:57.901Z,90.10
2018-09-05T07:39:26.150Z,89.60
2018-09-05T07:41:54.389Z,89.60
2018-09-05T07:44:22.661Z,88.60
2018-09-05T07:46:50.986Z,89.60
2018-09-05T07:49:19.183Z,87.80
2018-09-05T07:51:47.384Z,87.80
2018-09-05T07:54:15.549Z,87.80
2018-09-05T07:56:43.736Z,87.10
2018-09-05T07:59:12.421Z,87.40
2018-09-05T08:01:40.703Z,86.60
2018-09-05T08:04:09.503Z,85.60
2018-09-05T08:06:37.673Z,87.50
2018-09-05T08:09:08.537Z,86.90
2018-09-05T08:11:36.793Z,87.60
2018-09-05T08:14:05.316Z,87.30
2018-09-05T08:16:33.597Z,87.20
2018-09-05T08:19:02.221Z,86.00
2018-09-05T08:21:31.039Z,86.30
2018-09-05T08:24:00.070Z,85.40
2018-09-05T08:26:29.193Z,85.60
2018-09-05T08:28:57.574Z,85.80
2018-09-05T08:31:27.428Z,87.00
2018-09-05T08:33:56.808Z,85.60
2018-09-05T08:36:26.890Z,85.90
2018-09-05T08:38:56.282Z,85.60
2018-09-05T08:41:24.438Z,85.10
2018-09-05T08:43:52.781Z,85.50
2018-09-05T08:46:24.021Z,85.40
2018-09-05T08:48:52.437Z,82.90
2018-09-05T08:51:21.552Z,84.70
2018-09-05T08:53:50.281Z,84.60
2018-09-05T08:56:18.607Z,85.70
2018-09-05T08:58:46.832Z,84.50
2018-09-05T09:01:15.005Z,84.80
2018-09-05T09:03:43.206Z,84.20
2018-09-05T09:06:11.369Z,83.50
2018-09-05T09:08:39.557Z,83.80
2018-09-05T09:11:07.744Z,83.80
2018-09-05T09:13:35.964Z,83.10
2018-09-05T09:16:04.261Z,84.50
2018-09-05T09:18:32.561Z,83.50
2018-09-05T09:21:00.761Z,83.40
2018-09-05T09:23:28.937Z,83.90
2018-09-05T09:25:57.136Z,82.80
2018-09-05T09:28:25.398Z,82.10
2018-09-05T09:30:53.572Z,82.30
2018-09-05T09:33:21.789Z,81.80
2018-09-05T09:35:49.969Z,81.90
2018-09-05T09:38:18.324Z,82.50
2018-09-05T09:40:46.511Z,82.50
2018-09-05T09:43:14.753Z,82.30
2018-09-05T09:45:42.969Z,81.50
2018-09-05T09:48:11.208Z,80.70
2018-09-05T09:50:39.428Z,81.60
2018-09-05T09:53:07.826Z,80.90
2018-09-05T09:55:36.061Z,81.60
2018-09-05T09:58:04.504Z,80.90
2018-09-05T10:00:38.149Z,82.00
2018-09-05T10:03:11.846Z,84.00
2018-09-05T10:05:45.597Z,83.70
2018-09-05T10:08:19.293Z,82.80
2018-09-05T10:10:53.092Z,82.70
2018-09-05T10:13:26.729Z,83.40
2018-09-05T10:16:00.517Z,81.40
2018-09-05T10:18:30.649Z,80.40
2018-09-05T10:20:58.964Z,81.40
2018-09-05T10:23:27.174Z,80.90
2018-09-05T10:25:55.448Z,80.20
2018-09-05T10:28:23.837Z,80.80
2018-09-05T10:30:52.016Z,80.50
2018-09-05T10:33:20.286Z,79.90
2018-09-05T10:35:48.506Z,79.60
2018-09-05T10:38:16.715Z,80.40
2018-09-05T10:40:45.225Z,81.40
2018-09-05T10:43:13.451Z,80.00
2018-09-05T10:45:41.648Z,80.60
2018-09-05T10:48:09.923Z,79.20
2018-09-05T10:50:38.182Z,79.90
2018-09-05T10:53:06.692Z,77.40
2018-09-05T10:55:35.046Z,78.70
2018-09-05T10:58:03.545Z,78.90
2018-09-05T11:00:31.757Z,80.00
2018-09-05T11:02:59.967Z,79.10
2018-09-05T11:05:28.176Z,79.20
2018-09-05T11:07:56.373Z,79.40
2018-09-05T11:10:24.583Z,80.50
2018-09-05T11:12:52.815Z,78.60
2018-09-05T11:15:21.074Z,79.50
2018-09-05T11:17:49.324Z,80.70
2018-09-05T11:20:17.674Z,80.10
2018-09-05T11:22:45.825Z,79.90
2018-09-05T11:25:14.032Z,80.80
2018-09-05T11:27:42.299Z,80.90
2018-09-05T11:30:10.520Z,79.70
2018-09-05T11:32:38.741Z,79.30
2018-09-05T11:35:06.947Z,79.30
2018-09-05T11:37:35.253Z,79.80
2018-09-05T11:40:03.822Z,79.00
2018-09-05T11:42:32.024Z,76.50
2018-09-05T11:45:00.225Z,79.40
2018-09-05T11:47:28.424Z,77.90
2018-09-05T11:49:56.637Z,77.70
2018-09-05T11:52:24.829Z,78.70
2018-09-05T11:54:53.024Z,78.10
2018-09-05T11:57:21.336Z,78.80
2018-09-05T11:59:49.505Z,79.00
2018-09-05T12:02:17.874Z,77.70
2018-09-05T12:04:46.093Z,78.20
2018-09-05T12:07:14.349Z,77.50
2018-09-05T12:09:42.565Z,78.60
2018-09-05T12:12:11.494Z,77.90
2018-09-05T12:14:39.709Z,77.50
2018-09-05T12:17:08.313Z,79.50
2018-09-05T12:19:36.522Z,78.20
2018-09-05T12:22:04.745Z,77.20
2018-09-05T12:24:32.938Z,75.10
2018-09-05T12:27:01.153Z,75.10
2018-09-05T12:29:30.721Z,75.50
2018-09-05T12:31:59.021Z,75.10
2018-09-05T12:34:27.220Z,73.00
2018-09-05T12:36:55.394Z,73.80
2018-09-05T12:39:23.597Z,74.90
2018-09-05T12:41:51.800Z,73.90
2018-09-05T12:44:20.005Z,73.60
2018-09-05T12:46:48.228Z,74.40
2018-09-05T12:49:16.514Z,73.90
2018-09-05T12:51:44.731Z,73.70
2018-09-05T12:54:13.029Z,75.80
2018-09-05T12:56:41.273Z,75.10
2018-09-05T12:59:09.507Z,75.60
2018-09-05T13:01:37.711Z,75.20
2018-09-05T13:04:06.065Z,74.40
2018-09-05T13:06:34.701Z,75.00
2018-09-05T13:09:04.652Z,75.10
2018-09-05T13:11:32.868Z,75.20
2018-09-05T13:14:01.070Z,74.20
2018-09-05T13:16:29.280Z,74.60
2018-09-05T13:18:57.472Z,75.00
2018-09-05T13:21:25.681Z,75.30
2018-09-05T13:23:53.894Z,75.20
2018-09-05T13:26:22.077Z,73.80
2018-09-05T13:28:50.285Z,72.50
2018-09-05T13:31:18.486Z,72.30
2018-09-05T13:33:46.700Z,73.40
2018-09-05T13:36:15.057Z,74.10
2018-09-05T13:38:43.260Z,73.20
2018-09-05T13:41:11.468Z,74.10
2018-09-05T13:43:39.649Z,74.60
2018-09-05T13:46:07.860Z,74.60
2018-09-05T13:48:36.082Z,74.90
2018-09-05T13:51:04.462Z,75.50
2018-09-05T13:53:32.820Z,74.10
2018-09-05T13:56:01.118Z,75.80
2018-09-05T13:58:30.505Z,76.70
2018-09-05T14:00:58.822Z,73.10
2018-09-05T14:03:27.007Z,74.50
2018-09-05T14:05:55.227Z,73.40
2018-09-05T14:08:23.400Z,73.90
2018-09-05T14:10:51.689Z,74.30
2018-09-05T14:13:19.946Z,73.30
2018-09-05T14:15:48.113Z,74.50
2018-09-05T14:18:16.331Z,75.90
2018-09-05T14:20:44.683Z,76.90
2018-09-05T14:23:12.867Z,76.20
2018-09-05T14:25:41.066Z,76.90
2018-09-05T14:28:09.260Z,76.20
2018-09-05T14:30:37.555Z,76.60
2018-09-05T14:33:05.793Z,76.80
2018-09-05T14:35:33.992Z,75.50
2018-09-05T14:38:02.280Z,75.80
2018-09-05T14:40:30.472Z,74.90
2018-09-05T14:42:58.697Z,75.00
2018-09-05T14:45:26.872Z,73.90
2018-09-05T14:47:55.093Z,74.80
2018-09-05T14:50:23.349Z,74.80
2018-09-05T14:52:51.525Z,75.50
2018-09-05T14:55:19.913Z,75.70
2018-09-05T14:57:48.282Z,75.00
2018-09-05T15:00:16.576Z,74.70
2018-09-05T15:02:44.859Z,74.90
2018-09-05T15:05:13.153Z,74.80
2018-09-05T15:07:45.857Z,76.20
2018-09-05T15:10:14.093Z,77.00
2018-09-05T15:12:42.500Z,77.50
2018-09-05T15:15:10.769Z,78.10
2018-09-05T15:17:38.993Z,78.10
2018-09-05T15:20:08.218Z,78.70
2018-09-05T15:22:37.083Z,77.90
2018-09-05T15:25:05.692Z,78.80
2018-09-05T15:27:33.901Z,79.00
2018-09-05T15:30:02.078Z,78.90
2018-09-05T15:32:30.309Z,77.40
2018-09-05T15:34:58.757Z,78.60
2018-09-05T15:37:26.980Z,78.10
2018-09-05T15:39:55.222Z,79.60
2018-09-05T15:42:23.410Z,79.30
2018-09-05T15:44:51.664Z,80.50
2018-09-05T15:47:19.862Z,81.60
2018-09-05T15:49:48.123Z,80.80
2018-09-05T15:52:18.607Z,80.70
2018-09-05T15:54:46.797Z,81.40
2018-09-05T15:57:15.227Z,81.40
2018-09-05T15:59:43.509Z,81.20
2018-09-05T16:02:11.869Z,81.40
2018-09-05T16:04:40.161Z,81.10
2018-09-05T16:07:08.611Z,81.10
2018-09-05T16:09:36.860Z,81.70
2018-09-05T16:12:05.090Z,81.80
2018-09-05T16:14:33.301Z,80.90
2018-09-05T16:17:01.565Z,81.20
2018-09-05T16:19:29.733Z,82.50
2018-09-05T16:21:57.988Z,83.10
2018-09-05T16:24:26.143Z,84.00
2018-09-05T16:26:54.349Z,83.90
2018-09-05T16:29:22.588Z,84.90
2018-09-05T16:31:50.767Z,84.30
2018-09-05T16:34:19.063Z,83.80
2018-09-05T16:36:47.234Z,83.90
2018-09-05T16:39:15.456Z,84.20
2018-09-05T16:41:43.633Z,84.10
2018-09-05T16:44:11.841Z,84.40
2018-09-05T16:46:40.122Z,83.80
2018-09-05T16:49:08.322Z,85.20
2018-09-05T16:51:36.550Z,84.40
2018-09-05T16:54:04.797Z,84.00
2018-09-05T16:56:33.913Z,84.60
2018-09-05T16:59:02.213Z,85.40
2018-09-05T17:01:30.471Z,85.80
2018-09-05T17:03:58.773Z,85.60
2018-09-05T17:06:27.194Z,86.30
2018-09-05T17:08:55.454Z,86.60
2018-09-05T17:11:23.944Z,86.70
2018-09-05T17:13:52.187Z,86.80
2018-09-05T17:16:20.453Z,87.00
2018-09-05T17:18:48.669Z,86.60
2018-09-05T17:21:16.890Z,87.50
2018-09-05T17:23:45.147Z,87.70
2018-09-05T17:26:13.330Z,87.80
2018-09-05T17:28:41.569Z,87.80
2018-09-05T17:31:09.847Z,87.70
2018-09-05T17:33:38.081Z,88.10
2018-09-05T17:36:06.556Z,88.20
2018-09-05T17:38:35.128Z,88.50
2018-09-05T17:41:03.348Z,89.10
2018-09-05T17:43:31.538Z,89.50
2018-09-05T17:45:59.755Z,89.70
2018-09-05T17:48:28.105Z,89.40
2018-09-05T17:50:56.313Z,89.60
2018-09-05T17:53:24.536Z,90.40
2018-09-05T17:55:52.734Z,90.60
2018-09-05T17:58:20.950Z,90.60
2018-09-05T18:00:49.130Z,90.60
2018-09-05T18:03:17.333Z,91.00
2018-09-05T18:05:45.550Z,90.90
2018-09-05T18:08:13.800Z,91.70
2018-09-05T18:10:42.065Z,92.00
2018-09-05T18:13:10.285Z,92.40
2018-09-05T18:15:38.491Z,92.30
2018-09-05T18:18:06.674Z,92.40
2018-09-05T18:20:34.993Z,92.60
2018-09-05T18:23:03.307Z,92.70
2018-09-05T18:25:31.496Z,93.10
2018-09-05T18:27:59.741Z,93.00
2018-09-05T18:30:27.921Z,92.80
2018-09-05T18:32:56.129Z,92.50
2018-09-05T18:35:24.353Z,92.80
2018-09-05T18:37:52.521Z,92.80
2018-09-05T18:40:20.734Z,92.80
2018-09-05T18:42:48.956Z,93.10
2018-09-05T18:45:17.226Z,93.20
2018-09-05T18:47:45.434Z,93.90
2018-09-05T18:50:13.621Z,93.80
2018-09-05T18:52:41.824Z,93.80
2018-09-05T18:55:10.004Z,93.90
2018-09-05T18:57:38.197Z,94.00
2018-09-05T19:00:06.473Z,93.60
2018-09-05T19:02:34.727Z,93.60
2018-09-05T19:05:03.201Z,93.70
2018-09-05T19:07:31.468Z,94.00
2018-09-05T19:09:59.765Z,93.90
2018-09-05T19:12:28.098Z,94.10
2018-09-05T19:14:56.457Z,94.20
2018-09-05T19:17:24.830Z,94.60
2018-09-05T19:19:54.518Z,94.30
2018-09-05T19:22:22.786Z,94.40
2018-09-05T19:24:51.008Z,94.40
2018-09-05T19:27:19.212Z,94.20
2018-09-05T19:29:47.385Z,94.30
2018-09-05T19:32:15.601Z,94.50
2018-09-05T19:34:43.903Z,94.70
2018-09-05T19:37:12.177Z,94.70
2018-09-05T19:39:40.390Z,94.70
2018-09-05T19:42:08.637Z,94.70
2018-09-05T19:44:38.693Z,94.80
2018-09-05T19:47:07.257Z,95.00
2018-09-05T19:49:38.732Z,94.90
2018-09-05T19:52:09.047Z,94.80
2018-09-05T19:54:41.479Z,95.10
2018-09-05T19:57:12.032Z,94.80
2018-09-05T19:59:42.481Z,95.10
2018-09-05T20:02:11.900Z,95.30
2018-09-05T20:04:40.885Z,95.30
2018-09-05T20:07:10.250Z,95.90
2018-09-05T20:09:38.569Z,96.40
2018-09-05T20:12:06.797Z,96.30
2018-09-05T20:14:35.033Z,97.00
2018-09-05T20:17:03.288Z,97.30
2018-09-05T20:24:23.654Z,97.30
2018-09-05T20:26:51.862Z,97.80
2018-09-05T20:29:20.089Z,97.90
2018-09-05T20:31:48.340Z,98.00
2018-09-05T20:34:16.565Z,98.10
2018-09-05T20:36:44.877Z,98.40
2018-09-05T20:39:13.220Z,98.50
2018-09-05T20:41:41.745Z,98.50
2018-09-05T20:44:10.149Z,98.50
2018-09-05T20:46:39.746Z,98.50
2018-09-05T20:49:08.212Z,98.50
2018-09-05T20:51:36.548Z,98.50
2018-09-05T20:54:05.636Z,98.50
2018-09-05T20:56:33.841Z,98.50
2018-09-05T20:59:02.057Z,98.50
2018-09-05T21:01:30.265Z,98.50
2018-09-05T21:03:58.473Z,98.50
2018-09-05T21:06:26.729Z,98.50
2018-09-05T21:08:54.912Z,98.50
2018-09-05T21:11:23.076Z,98.50
2018-09-05T21:13:51.417Z,98.50
2018-09-05T21:16:19.767Z,98.50
2018-09-05T21:18:48.049Z,98.50
2018-09-05T21:21:16.264Z,98.50
2018-09-05T21:23:44.425Z,98.50
2018-09-05T21:26:12.622Z,98.50
2018-09-05T21:28:40.792Z,98.50
2018-09-05T21:31:09.045Z,98.50
2018-09-05T21:33:37.245Z,98.50
2018-09-05T21:36:05.441Z,98.50
2018-09-05T21:38:33.729Z,98.50
2018-09-05T21:41:01.913Z,98.50
2018-09-05T21:43:30.108Z,98.50
2018-09-05T21:45:58.277Z,98.50
2018-09-05T21:48:26.852Z,98.50
2018-09-05T21:50:55.049Z,98.50
2018-09-05T21:53:23.208Z,98.50
2018-09-05T21:55:51.428Z,98.50
2018-09-05T21:58:19.838Z,98.50
2018-09-05T22:00:48.384Z,98.50
2018-09-05T22:03:16.761Z,98.50
2018-09-05T22:05:44.926Z,98.50
2018-09-05T22:08:13.125Z,98.50
2018-09-05T22:10:41.321Z,98.50
2018-09-05T22:13:09.547Z,98.50
2018-09-05T22:15:45.290Z,98.50
2018-09-05T22:18:13.772Z,98.50
2018-09-05T22:20:42.033Z,98.50
2018-09-05T22:23:10.194Z,98.50
2018-09-05T22:25:38.396Z,98.50
2018-09-05T22:28:06.682Z,98.50
2018-09-05T22:30:34.903Z,98.50
2018-09-05T22:33:03.812Z,98.50
2018-09-05T22:35:32.013Z,98.50
2018-09-05T22:38:00.229Z,98.50
2018-09-05T22:40:30.481Z,98.50
2018-09-05T22:43:10.493Z,98.50
2018-09-05T22:45:49.629Z,98.50
2018-09-05T22:48:34.397Z,98.50
2018-09-05T22:52:18.685Z,98.50
2018-09-05T22:55:18.557Z,98.50
2018-09-05T22:59:01.379Z,98.50
2018-09-05T23:01:41.646Z,98.50
2018-09-05T23:04:28.665Z,98.50
2018-09-05T23:08:13.255Z,98.50
2018-09-05T23:10:52.358Z,97.90
2018-09-05T23:14:32.469Z,98.10
2018-09-05T23:18:11.057Z,97.90
2018-09-05T23:21:23.941Z,98.20
2018-09-05T23:24:08.990Z,97.70
2018-09-05T23:26:37.229Z,97.20
2018-09-05T23:29:05.546Z,97.70
2018-09-05T23:31:33.786Z,97.40
2018-09-05T23:34:01.987Z,97.30
2018-09-05T23:36:30.202Z,97.70
2018-09-05T23:38:58.425Z,97.50
2018-09-05T23:41:26.586Z,97.10
2018-09-05T23:43:54.798Z,97.30
2018-09-05T23:46:22.985Z,97.50
2018-09-05T23:48:51.195Z,97.40
2018-09-05T23:51:19.394Z,97.10
2018-09-05T23:53:47.607Z,97.00
2018-09-05T23:56:15.914Z,97.20
2018-09-05T23:58:44.090Z,97.10
